sensor_id;sensor_type;location;lat;lon;timestamp;temperature;humidity
20442;DHT22;10380;52.102;20.614;2022-12-13T00:01:15;-0.10;99.90
20442;DHT22;10380;52.102;20.614;2022-12-13T00:03:42;-0.20;99.90
20442;DHT22;10380;52.102;20.614;2022-12-13T00:06:10;-0.20;99.90
20442;DHT22;10380;52.102;20.614;2022-12-13T00:08:39;-0.20;99.90
20442;DHT22;10380;52.102;20.614;2022-12-13T00:11:10;-0.20;99.90
20442;DHT22;10380;52.102;20.614;2022-12-13T00:13:40;-0.20;99.90
20442;DHT22;10380;52.102;20.614;2022-12-13T00:16:11;-0.20;99.90
20442;DHT22;10380;52.102;20.614;2022-12-13T00:18:38;-0.20;99.90
20442;DHT22;10380;52.102;20.614;2022-12-13T00:21:13;-0.10;99.90
20442;DHT22;10380;52.102;20.614;2022-12-13T00:23:40;-0.10;99.90
20442;DHT22;10380;52.102;20.614;2022-12-13T00:26:11;-0.20;99.90
20442;DHT22;10380;52.102;20.614;2022-12-13T00:28:39;-0.20;99.90
20442;DHT22;10380;52.102;20.614;2022-12-13T00:31:07;-0.20;99.90
20442;DHT22;10380;52.102;20.614;2022-12-13T00:33:54;-0.10;99.90
20442;DHT22;10380;52.102;20.614;2022-12-13T00:36:21;-0.20;99.90
20442;DHT22;10380;52.102;20.614;2022-12-13T00:38:48;-0.20;99.90
20442;DHT22;10380;52.102;20.614;2022-12-13T00:41:29;-0.20;99.90
20442;DHT22;10380;52.102;20.614;2022-12-13T00:43:56;-0.20;99.90
20442;DHT22;10380;52.102;20.614;2022-12-13T00:46:24;-0.20;99.90
20442;DHT22;10380;52.102;20.614;2022-12-13T00:48:53;-0.20;99.90
20442;DHT22;10380;52.102;20.614;2022-12-13T00:51:21;-0.30;99.90
20442;DHT22;10380;52.102;20.614;2022-12-13T00:53:50;-0.30;99.90
20442;DHT22;10380;52.102;20.614;2022-12-13T00:56:20;-0.30;99.90
20442;DHT22;10380;52.102;20.614;2022-12-13T00:58:51;-0.30;99.90
20442;DHT22;10380;52.102;20.614;2022-12-13T01:01:24;-0.40;99.90
20442;DHT22;10380;52.102;20.614;2022-12-13T01:03:57;-0.40;99.90
20442;DHT22;10380;52.102;20.614;2022-12-13T01:06:28;-0.50;99.90
20442;DHT22;10380;52.102;20.614;2022-12-13T01:08:56;-0.50;99.90
20442;DHT22;10380;52.102;20.614;2022-12-13T01:11:23;-0.50;99.90
20442;DHT22;10380;52.102;20.614;2022-12-13T01:13:50;-0.50;99.90
20442;DHT22;10380;52.102;20.614;2022-12-13T01:16:17;-0.50;99.90
20442;DHT22;10380;52.102;20.614;2022-12-13T01:18:44;-0.50;99.90
20442;DHT22;10380;52.102;20.614;2022-12-13T01:21:13;-0.50;99.90
20442;DHT22;10380;52.102;20.614;2022-12-13T01:23:41;-0.50;99.90
20442;DHT22;10380;52.102;20.614;2022-12-13T01:26:11;-0.50;99.90
20442;DHT22;10380;52.102;20.614;2022-12-13T01:28:38;-0.50;99.90
20442;DHT22;10380;52.102;20.614;2022-12-13T01:31:09;-0.50;99.90
20442;DHT22;10380;52.102;20.614;2022-12-13T01:33:37;-0.50;99.90
20442;DHT22;10380;52.102;20.614;2022-12-13T01:36:07;-0.50;99.90
20442;DHT22;10380;52.102;20.614;2022-12-13T01:38:34;-0.50;99.90
20442;DHT22;10380;52.102;20.614;2022-12-13T01:41:04;-0.40;99.90
20442;DHT22;10380;52.102;20.614;2022-12-13T01:46:10;-0.40;99.90
20442;DHT22;10380;52.102;20.614;2022-12-13T01:48:48;-0.30;99.90
20442;DHT22;10380;52.102;20.614;2022-12-13T01:51:19;-0.40;99.90
20442;DHT22;10380;52.102;20.614;2022-12-13T01:53:48;-0.40;99.90
20442;DHT22;10380;52.102;20.614;2022-12-13T01:56:27;-0.40;99.90
20442;DHT22;10380;52.102;20.614;2022-12-13T01:58:54;-0.30;99.90
20442;DHT22;10380;52.102;20.614;2022-12-13T02:01:22;-0.30;99.90
20442;DHT22;10380;52.102;20.614;2022-12-13T02:03:50;-0.30;99.90
20442;DHT22;10380;52.102;20.614;2022-12-13T02:06:30;-0.30;99.90
20442;DHT22;10380;52.102;20.614;2022-12-13T02:09:00;-0.30;99.90
20442;DHT22;10380;52.102;20.614;2022-12-13T02:11:28;-0.30;99.90
20442;DHT22;10380;52.102;20.614;2022-12-13T02:13:55;-0.30;99.90
20442;DHT22;10380;52.102;20.614;2022-12-13T02:16:48;-0.20;99.90
20442;DHT22;10380;52.102;20.614;2022-12-13T02:25:23;-0.30;99.90
20442;DHT22;10380;52.102;20.614;2022-12-13T02:31:13;-0.30;99.90
20442;DHT22;10380;52.102;20.614;2022-12-13T02:36:36;-0.30;99.90
20442;DHT22;10380;52.102;20.614;2022-12-13T02:40:15;-0.30;99.90
20442;DHT22;10380;52.102;20.614;2022-12-13T02:42:34;-0.30;99.90
20442;DHT22;10380;52.102;20.614;2022-12-13T02:45:14;-0.30;99.90
20442;DHT22;10380;52.102;20.614;2022-12-13T02:47:48;-0.30;99.90
20442;DHT22;10380;52.102;20.614;2022-12-13T02:50:19;-0.30;99.90
20442;DHT22;10380;52.102;20.614;2022-12-13T02:52:49;-0.30;99.90
20442;DHT22;10380;52.102;20.614;2022-12-13T02:55:17;-0.30;99.90
20442;DHT22;10380;52.102;20.614;2022-12-13T02:57:45;-0.30;99.90
20442;DHT22;10380;52.102;20.614;2022-12-13T03:06:09;-0.30;99.90
20442;DHT22;10380;52.102;20.614;2022-12-13T03:09:29;-0.30;99.90
20442;DHT22;10380;52.102;20.614;2022-12-13T03:12:18;-0.30;99.90
20442;DHT22;10380;52.102;20.614;2022-12-13T03:15:19;-0.30;99.90
20442;DHT22;10380;52.102;20.614;2022-12-13T03:17:56;-0.40;99.90
20442;DHT22;10380;52.102;20.614;2022-12-13T03:20:27;-0.40;99.90
20442;DHT22;10380;52.102;20.614;2022-12-13T03:22:55;-0.30;99.90
20442;DHT22;10380;52.102;20.614;2022-12-13T03:25:30;-0.40;99.90
20442;DHT22;10380;52.102;20.614;2022-12-13T03:28:00;-0.30;99.90
20442;DHT22;10380;52.102;20.614;2022-12-13T03:30:30;-0.40;99.90
20442;DHT22;10380;52.102;20.614;2022-12-13T03:32:58;-0.40;99.90
20442;DHT22;10380;52.102;20.614;2022-12-13T03:35:27;-0.30;99.90
20442;DHT22;10380;52.102;20.614;2022-12-13T03:38:01;-0.30;99.90
20442;DHT22;10380;52.102;20.614;2022-12-13T03:40:29;-0.40;99.90
20442;DHT22;10380;52.102;20.614;2022-12-13T03:42:56;-0.40;99.90
20442;DHT22;10380;52.102;20.614;2022-12-13T03:45:23;-0.40;99.90
20442;DHT22;10380;52.102;20.614;2022-12-13T03:47:51;-0.40;99.90
20442;DHT22;10380;52.102;20.614;2022-12-13T03:50:18;-0.40;99.90
20442;DHT22;10380;52.102;20.614;2022-12-13T03:53:00;-0.40;99.90
20442;DHT22;10380;52.102;20.614;2022-12-13T03:55:27;-0.40;99.90
20442;DHT22;10380;52.102;20.614;2022-12-13T03:57:55;-0.40;99.90
20442;DHT22;10380;52.102;20.614;2022-12-13T04:00:22;-0.40;99.90
20442;DHT22;10380;52.102;20.614;2022-12-13T04:02:49;-0.40;99.90
20442;DHT22;10380;52.102;20.614;2022-12-13T04:05:17;-0.40;99.90
20442;DHT22;10380;52.102;20.614;2022-12-13T04:07:45;-0.50;99.90
20442;DHT22;10380;52.102;20.614;2022-12-13T04:10:14;-0.40;99.90
20442;DHT22;10380;52.102;20.614;2022-12-13T04:12:53;-0.50;99.90
20442;DHT22;10380;52.102;20.614;2022-12-13T04:15:38;-0.50;99.90
20442;DHT22;10380;52.102;20.614;2022-12-13T04:18:06;-0.50;99.90
20442;DHT22;10380;52.102;20.614;2022-12-13T04:20:33;-0.50;99.90
20442;DHT22;10380;52.102;20.614;2022-12-13T04:23:00;-0.60;99.90
20442;DHT22;10380;52.102;20.614;2022-12-13T04:25:36;-0.60;99.90
20442;DHT22;10380;52.102;20.614;2022-12-13T04:28:04;-0.60;99.90
20442;DHT22;10380;52.102;20.614;2022-12-13T04:30:31;-0.60;99.90
20442;DHT22;10380;52.102;20.614;2022-12-13T04:32:58;-0.60;99.90
20442;DHT22;10380;52.102;20.614;2022-12-13T04:35:25;-0.60;99.90
20442;DHT22;10380;52.102;20.614;2022-12-13T04:37:52;-0.70;99.90
20442;DHT22;10380;52.102;20.614;2022-12-13T04:40:20;-0.70;99.90
20442;DHT22;10380;52.102;20.614;2022-12-13T04:42:47;-0.70;99.90
20442;DHT22;10380;52.102;20.614;2022-12-13T04:45:21;-0.70;99.90
20442;DHT22;10380;52.102;20.614;2022-12-13T04:47:48;-0.80;99.90
20442;DHT22;10380;52.102;20.614;2022-12-13T04:50:15;-0.80;99.90
20442;DHT22;10380;52.102;20.614;2022-12-13T04:52:42;-0.80;99.90
20442;DHT22;10380;52.102;20.614;2022-12-13T04:55:11;-0.80;99.90
20442;DHT22;10380;52.102;20.614;2022-12-13T04:57:39;-0.80;99.90
20442;DHT22;10380;52.102;20.614;2022-12-13T05:00:07;-0.90;99.90
20442;DHT22;10380;52.102;20.614;2022-12-13T05:02:35;-0.90;99.90
20442;DHT22;10380;52.102;20.614;2022-12-13T05:05:03;-0.90;99.90
20442;DHT22;10380;52.102;20.614;2022-12-13T05:07:29;-0.90;99.90
20442;DHT22;10380;52.102;20.614;2022-12-13T05:09:56;-0.90;99.90
20442;DHT22;10380;52.102;20.614;2022-12-13T05:12:24;-0.90;99.90
20442;DHT22;10380;52.102;20.614;2022-12-13T05:14:52;-0.90;99.90
20442;DHT22;10380;52.102;20.614;2022-12-13T05:17:20;-0.90;99.90
20442;DHT22;10380;52.102;20.614;2022-12-13T05:19:49;-0.90;99.90
20442;DHT22;10380;52.102;20.614;2022-12-13T05:22:17;-1.00;99.90
20442;DHT22;10380;52.102;20.614;2022-12-13T05:24:47;-1.00;99.90
20442;DHT22;10380;52.102;20.614;2022-12-13T05:27:14;-1.00;99.90
20442;DHT22;10380;52.102;20.614;2022-12-13T05:29:55;-1.00;99.90
20442;DHT22;10380;52.102;20.614;2022-12-13T05:32:35;-1.00;99.90
20442;DHT22;10380;52.102;20.614;2022-12-13T05:35:14;-1.10;99.90
20442;DHT22;10380;52.102;20.614;2022-12-13T05:37:50;-1.10;99.90
20442;DHT22;10380;52.102;20.614;2022-12-13T05:40:24;-1.10;99.90
20442;DHT22;10380;52.102;20.614;2022-12-13T05:42:53;-1.20;99.90
20442;DHT22;10380;52.102;20.614;2022-12-13T05:45:31;-1.20;99.90
20442;DHT22;10380;52.102;20.614;2022-12-13T05:47:59;-1.20;99.90
20442;DHT22;10380;52.102;20.614;2022-12-13T05:50:27;-1.30;99.90
20442;DHT22;10380;52.102;20.614;2022-12-13T05:52:53;-1.30;99.90
20442;DHT22;10380;52.102;20.614;2022-12-13T05:55:20;-1.30;99.90
20442;DHT22;10380;52.102;20.614;2022-12-13T05:57:47;-1.30;99.90
20442;DHT22;10380;52.102;20.614;2022-12-13T06:00:17;-1.30;99.90
20442;DHT22;10380;52.102;20.614;2022-12-13T06:02:57;-1.30;99.90
20442;DHT22;10380;52.102;20.614;2022-12-13T06:05:30;-1.30;99.90
20442;DHT22;10380;52.102;20.614;2022-12-13T06:07:57;-1.40;99.90
20442;DHT22;10380;52.102;20.614;2022-12-13T06:10:25;-1.40;99.90
20442;DHT22;10380;52.102;20.614;2022-12-13T06:13:02;-1.40;99.90
20442;DHT22;10380;52.102;20.614;2022-12-13T06:15:50;-1.50;99.90
20442;DHT22;10380;52.102;20.614;2022-12-13T06:18:17;-1.50;99.90
20442;DHT22;10380;52.102;20.614;2022-12-13T06:20:44;-1.50;99.90
20442;DHT22;10380;52.102;20.614;2022-12-13T06:23:12;-1.50;99.90
20442;DHT22;10380;52.102;20.614;2022-12-13T06:25:39;-1.50;99.90
20442;DHT22;10380;52.102;20.614;2022-12-13T06:28:07;-1.60;99.90
20442;DHT22;10380;52.102;20.614;2022-12-13T06:30:35;-1.60;99.90
20442;DHT22;10380;52.102;20.614;2022-12-13T06:33:08;-1.60;99.90
20442;DHT22;10380;52.102;20.614;2022-12-13T06:35:39;-1.60;99.90
20442;DHT22;10380;52.102;20.614;2022-12-13T06:38:07;-1.60;99.90
20442;DHT22;10380;52.102;20.614;2022-12-13T06:40:38;-1.60;99.90
20442;DHT22;10380;52.102;20.614;2022-12-13T06:43:05;-1.60;99.90
20442;DHT22;10380;52.102;20.614;2022-12-13T06:45:32;-1.60;99.90
20442;DHT22;10380;52.102;20.614;2022-12-13T06:47:59;-1.60;99.90
20442;DHT22;10380;52.102;20.614;2022-12-13T06:50:26;-1.60;99.90
20442;DHT22;10380;52.102;20.614;2022-12-13T06:52:53;-1.60;99.90
20442;DHT22;10380;52.102;20.614;2022-12-13T06:55:19;-1.60;99.90
20442;DHT22;10380;52.102;20.614;2022-12-13T06:57:50;-1.60;99.90
20442;DHT22;10380;52.102;20.614;2022-12-13T07:00:17;-1.60;99.90
20442;DHT22;10380;52.102;20.614;2022-12-13T07:02:54;-1.60;99.90
20442;DHT22;10380;52.102;20.614;2022-12-13T07:05:21;-1.60;99.90
20442;DHT22;10380;52.102;20.614;2022-12-13T07:07:48;-1.60;99.90
20442;DHT22;10380;52.102;20.614;2022-12-13T07:10:15;-1.60;99.90
20442;DHT22;10380;52.102;20.614;2022-12-13T07:12:49;-1.60;99.90
20442;DHT22;10380;52.102;20.614;2022-12-13T07:15:16;-1.60;99.90
20442;DHT22;10380;52.102;20.614;2022-12-13T07:17:43;-1.60;99.90
20442;DHT22;10380;52.102;20.614;2022-12-13T07:20:10;-1.60;99.90
20442;DHT22;10380;52.102;20.614;2022-12-13T07:22:39;-1.60;99.90
20442;DHT22;10380;52.102;20.614;2022-12-13T07:25:14;-1.60;99.90
20442;DHT22;10380;52.102;20.614;2022-12-13T07:28:03;-1.60;99.90
20442;DHT22;10380;52.102;20.614;2022-12-13T07:30:36;-1.50;99.90
20442;DHT22;10380;52.102;20.614;2022-12-13T07:33:10;-1.60;99.90
20442;DHT22;10380;52.102;20.614;2022-12-13T07:35:37;-1.60;99.90
20442;DHT22;10380;52.102;20.614;2022-12-13T07:38:08;-1.50;99.90
20442;DHT22;10380;52.102;20.614;2022-12-13T07:40:36;-1.60;99.90
20442;DHT22;10380;52.102;20.614;2022-12-13T07:43:04;-1.50;99.90
20442;DHT22;10380;52.102;20.614;2022-12-13T07:45:32;-1.50;99.90
20442;DHT22;10380;52.102;20.614;2022-12-13T07:48:03;-1.50;99.90
20442;DHT22;10380;52.102;20.614;2022-12-13T07:50:30;-1.50;99.90
20442;DHT22;10380;52.102;20.614;2022-12-13T07:53:07;-1.50;99.90
20442;DHT22;10380;52.102;20.614;2022-12-13T07:55:35;-1.50;99.90
20442;DHT22;10380;52.102;20.614;2022-12-13T07:58:06;-1.50;99.90
20442;DHT22;10380;52.102;20.614;2022-12-13T08:00:34;-1.50;99.90
20442;DHT22;10380;52.102;20.614;2022-12-13T08:03:02;-1.50;99.90
20442;DHT22;10380;52.102;20.614;2022-12-13T08:05:28;-1.50;99.90
20442;DHT22;10380;52.102;20.614;2022-12-13T08:08:07;-1.50;99.90
20442;DHT22;10380;52.102;20.614;2022-12-13T08:10:35;-1.50;99.90
20442;DHT22;10380;52.102;20.614;2022-12-13T08:13:02;-1.50;99.90
20442;DHT22;10380;52.102;20.614;2022-12-13T08:15:30;-1.50;99.90
20442;DHT22;10380;52.102;20.614;2022-12-13T08:17:57;-1.50;99.90
20442;DHT22;10380;52.102;20.614;2022-12-13T08:20:26;-1.60;99.90
20442;DHT22;10380;52.102;20.614;2022-12-13T08:22:57;-1.50;99.90
20442;DHT22;10380;52.102;20.614;2022-12-13T08:25:29;-1.60;99.90
20442;DHT22;10380;52.102;20.614;2022-12-13T08:27:56;-1.60;99.90
20442;DHT22;10380;52.102;20.614;2022-12-13T08:30:29;-1.60;99.90
20442;DHT22;10380;52.102;20.614;2022-12-13T08:32:55;-1.60;99.90
20442;DHT22;10380;52.102;20.614;2022-12-13T08:35:26;-1.60;99.90
20442;DHT22;10380;52.102;20.614;2022-12-13T08:37:59;-1.60;99.90
20442;DHT22;10380;52.102;20.614;2022-12-13T08:40:26;-1.60;99.90
20442;DHT22;10380;52.102;20.614;2022-12-13T08:42:56;-1.60;99.90
20442;DHT22;10380;52.102;20.614;2022-12-13T08:45:23;-1.60;99.90
20442;DHT22;10380;52.102;20.614;2022-12-13T08:47:53;-1.60;99.90
20442;DHT22;10380;52.102;20.614;2022-12-13T08:50:23;-1.60;99.90
20442;DHT22;10380;52.102;20.614;2022-12-13T08:52:51;-1.60;99.90
20442;DHT22;10380;52.102;20.614;2022-12-13T08:55:18;-1.60;99.90
20442;DHT22;10380;52.102;20.614;2022-12-13T08:57:58;-1.50;99.90
20442;DHT22;10380;52.102;20.614;2022-12-13T09:00:27;-1.60;99.90
20442;DHT22;10380;52.102;20.614;2022-12-13T09:03:02;-1.60;99.90
20442;DHT22;10380;52.102;20.614;2022-12-13T09:05:29;-1.50;99.90
20442;DHT22;10380;52.102;20.614;2022-12-13T09:08:00;-1.50;99.90
20442;DHT22;10380;52.102;20.614;2022-12-13T09:10:38;-1.50;99.90
20442;DHT22;10380;52.102;20.614;2022-12-13T09:13:05;-1.50;99.90
20442;DHT22;10380;52.102;20.614;2022-12-13T09:15:38;-1.50;99.90
20442;DHT22;10380;52.102;20.614;2022-12-13T09:18:11;-1.40;99.90
20442;DHT22;10380;52.102;20.614;2022-12-13T09:20:50;-1.50;99.90
20442;DHT22;10380;52.102;20.614;2022-12-13T09:23:16;-1.50;99.90
20442;DHT22;10380;52.102;20.614;2022-12-13T09:25:57;-1.50;99.90
20442;DHT22;10380;52.102;20.614;2022-12-13T09:28:31;-1.50;99.90
20442;DHT22;10380;52.102;20.614;2022-12-13T09:30:59;-1.50;99.90
20442;DHT22;10380;52.102;20.614;2022-12-13T09:33:26;-1.50;99.90
20442;DHT22;10380;52.102;20.614;2022-12-13T09:35:56;-1.50;99.90
20442;DHT22;10380;52.102;20.614;2022-12-13T09:38:26;-1.50;99.90
20442;DHT22;10380;52.102;20.614;2022-12-13T09:40:53;-1.50;99.90
20442;DHT22;10380;52.102;20.614;2022-12-13T09:43:27;-1.50;99.90
20442;DHT22;10380;52.102;20.614;2022-12-13T09:45:59;-1.50;99.90
20442;DHT22;10380;52.102;20.614;2022-12-13T09:48:39;-1.40;99.90
20442;DHT22;10380;52.102;20.614;2022-12-13T09:51:14;-1.40;99.90
20442;DHT22;10380;52.102;20.614;2022-12-13T09:53:55;-1.40;99.90
20442;DHT22;10380;52.102;20.614;2022-12-13T09:56:22;-1.40;99.90
20442;DHT22;10380;52.102;20.614;2022-12-13T09:58:52;-1.30;99.90
20442;DHT22;10380;52.102;20.614;2022-12-13T10:01:19;-1.30;99.90
20442;DHT22;10380;52.102;20.614;2022-12-13T10:03:51;-1.30;99.90
20442;DHT22;10380;52.102;20.614;2022-12-13T10:06:24;-1.30;99.90
20442;DHT22;10380;52.102;20.614;2022-12-13T10:08:55;-1.30;99.90
20442;DHT22;10380;52.102;20.614;2022-12-13T10:11:26;-1.30;99.90
20442;DHT22;10380;52.102;20.614;2022-12-13T10:14:05;-1.30;99.90
20442;DHT22;10380;52.102;20.614;2022-12-13T10:19:25;-1.20;99.90
20442;DHT22;10380;52.102;20.614;2022-12-13T10:21:57;-1.20;99.90
20442;DHT22;10380;52.102;20.614;2022-12-13T10:32:45;-1.10;99.90
20442;DHT22;10380;52.102;20.614;2022-12-13T10:40:40;-1.10;99.90
20442;DHT22;10380;52.102;20.614;2022-12-13T10:43:12;-1.10;99.90
20442;DHT22;10380;52.102;20.614;2022-12-13T10:45:55;-1.10;99.90
20442;DHT22;10380;52.102;20.614;2022-12-13T10:51:09;-1.10;99.90
20442;DHT22;10380;52.102;20.614;2022-12-13T10:56:22;-1.00;99.90
20442;DHT22;10380;52.102;20.614;2022-12-13T10:59:09;-0.90;99.90
20442;DHT22;10380;52.102;20.614;2022-12-13T11:01:43;-1.00;99.90
20442;DHT22;10380;52.102;20.614;2022-12-13T11:04:30;-1.00;99.90
20442;DHT22;10380;52.102;20.614;2022-12-13T11:07:20;-1.00;99.90
20442;DHT22;10380;52.102;20.614;2022-12-13T11:09:47;-1.10;99.90
20442;DHT22;10380;52.102;20.614;2022-12-13T11:12:24;-1.10;99.90
20442;DHT22;10380;52.102;20.614;2022-12-13T11:15:00;-1.10;99.90
20442;DHT22;10380;52.102;20.614;2022-12-13T11:17:32;-1.10;99.90
20442;DHT22;10380;52.102;20.614;2022-12-13T11:20:06;-1.00;99.90
20442;DHT22;10380;52.102;20.614;2022-12-13T11:22:41;-1.10;99.90
20442;DHT22;10380;52.102;20.614;2022-12-13T11:25:40;-1.10;99.90
20442;DHT22;10380;52.102;20.614;2022-12-13T11:36:54;-1.20;99.90
20442;DHT22;10380;52.102;20.614;2022-12-13T11:39:37;-1.30;99.90
20442;DHT22;10380;52.102;20.614;2022-12-13T11:44:41;-1.30;99.90
20442;DHT22;10380;52.102;20.614;2022-12-13T11:47:19;-1.40;99.90
20442;DHT22;10380;52.102;20.614;2022-12-13T11:49:48;-1.10;99.90
20442;DHT22;10380;52.102;20.614;2022-12-13T11:52:24;-1.50;99.90
20442;DHT22;10380;52.102;20.614;2022-12-13T11:55:15;-1.50;99.90
20442;DHT22;10380;52.102;20.614;2022-12-13T11:57:53;-1.50;99.90
20442;DHT22;10380;52.102;20.614;2022-12-13T12:00:58;-1.50;99.90
20442;DHT22;10380;52.102;20.614;2022-12-13T12:03:36;-1.40;99.90
20442;DHT22;10380;52.102;20.614;2022-12-13T12:06:20;-1.40;99.90
20442;DHT22;10380;52.102;20.614;2022-12-13T12:09:00;-1.40;99.90
20442;DHT22;10380;52.102;20.614;2022-12-13T12:14:07;-1.40;99.90
20442;DHT22;10380;52.102;20.614;2022-12-13T12:16:37;-1.40;99.90
20442;DHT22;10380;52.102;20.614;2022-12-13T12:19:17;-1.50;99.90
20442;DHT22;10380;52.102;20.614;2022-12-13T12:33:06;-1.60;99.90
20442;DHT22;10380;52.102;20.614;2022-12-13T12:35:55;-1.60;99.90
20442;DHT22;10380;52.102;20.614;2022-12-13T12:38:40;-1.70;99.90
20442;DHT22;10380;52.102;20.614;2022-12-13T12:41:34;-1.70;99.90
20442;DHT22;10380;52.102;20.614;2022-12-13T12:44:16;-1.70;99.90
20442;DHT22;10380;52.102;20.614;2022-12-13T12:50:25;-1.80;99.90
20442;DHT22;10380;52.102;20.614;2022-12-13T13:04:29;-1.80;99.90
20442;DHT22;10380;52.102;20.614;2022-12-13T13:07:03;-1.80;99.90
20442;DHT22;10380;52.102;20.614;2022-12-13T13:09:50;-1.80;99.90
20442;DHT22;10380;52.102;20.614;2022-12-13T13:12:22;-1.80;99.90
20442;DHT22;10380;52.102;20.614;2022-12-13T13:14:56;-1.80;99.90
20442;DHT22;10380;52.102;20.614;2022-12-13T13:22:57;-1.80;99.90
20442;DHT22;10380;52.102;20.614;2022-12-13T13:25:53;-1.70;99.90
20442;DHT22;10380;52.102;20.614;2022-12-13T13:28:41;-1.80;99.90
20442;DHT22;10380;52.102;20.614;2022-12-13T13:31:08;-1.80;99.90
20442;DHT22;10380;52.102;20.614;2022-12-13T13:39:18;-1.90;99.90
20442;DHT22;10380;52.102;20.614;2022-12-13T13:49:55;-2.10;99.90
20442;DHT22;10380;52.102;20.614;2022-12-13T14:10:10;-2.40;99.90
20442;DHT22;10380;52.102;20.614;2022-12-13T14:29:30;-2.50;99.90
20442;DHT22;10380;52.102;20.614;2022-12-13T14:31:58;-2.60;99.90
20442;DHT22;10380;52.102;20.614;2022-12-13T14:34:31;-2.60;99.90
20442;DHT22;10380;52.102;20.614;2022-12-13T14:37:04;-2.60;99.90
20442;DHT22;10380;52.102;20.614;2022-12-13T14:39:32;-2.60;99.90
20442;DHT22;10380;52.102;20.614;2022-12-13T14:42:21;-2.60;99.90
20442;DHT22;10380;52.102;20.614;2022-12-13T14:44:49;-2.60;99.90
20442;DHT22;10380;52.102;20.614;2022-12-13T14:47:18;-2.60;99.90
20442;DHT22;10380;52.102;20.614;2022-12-13T14:49:49;-2.50;99.90
20442;DHT22;10380;52.102;20.614;2022-12-13T14:52:25;-2.50;99.90
20442;DHT22;10380;52.102;20.614;2022-12-13T14:54:58;-2.50;99.90
20442;DHT22;10380;52.102;20.614;2022-12-13T14:57:28;-2.60;99.90
20442;DHT22;10380;52.102;20.614;2022-12-13T14:59:58;-2.50;99.90
20442;DHT22;10380;52.102;20.614;2022-12-13T15:02:30;-2.50;99.90
20442;DHT22;10380;52.102;20.614;2022-12-13T15:04:59;-2.50;99.90
20442;DHT22;10380;52.102;20.614;2022-12-13T15:07:38;-2.50;99.90
20442;DHT22;10380;52.102;20.614;2022-12-13T15:10:32;-2.50;99.90
20442;DHT22;10380;52.102;20.614;2022-12-13T15:13:03;-2.40;99.90
20442;DHT22;10380;52.102;20.614;2022-12-13T15:15:37;-2.50;99.90
20442;DHT22;10380;52.102;20.614;2022-12-13T15:18:24;-2.50;99.90
20442;DHT22;10380;52.102;20.614;2022-12-13T15:20:53;-2.50;99.90
20442;DHT22;10380;52.102;20.614;2022-12-13T15:26:07;-2.50;99.90
20442;DHT22;10380;52.102;20.614;2022-12-13T15:28:38;-2.50;99.90
20442;DHT22;10380;52.102;20.614;2022-12-13T15:31:07;-2.60;99.90
20442;DHT22;10380;52.102;20.614;2022-12-13T15:33:35;-2.60;99.90
20442;DHT22;10380;52.102;20.614;2022-12-13T15:36:26;-2.60;99.90
20442;DHT22;10380;52.102;20.614;2022-12-13T15:41:31;-2.60;99.90
20442;DHT22;10380;52.102;20.614;2022-12-13T15:44:06;-2.70;99.90
20442;DHT22;10380;52.102;20.614;2022-12-13T15:46:35;-2.60;99.90
20442;DHT22;10380;52.102;20.614;2022-12-13T15:49:05;-2.70;99.90
20442;DHT22;10380;52.102;20.614;2022-12-13T15:52:44;-2.70;99.90
20442;DHT22;10380;52.102;20.614;2022-12-13T15:55:00;-2.70;99.90
20442;DHT22;10380;52.102;20.614;2022-12-13T15:57:32;-2.70;99.90
20442;DHT22;10380;52.102;20.614;2022-12-13T16:02:34;-2.70;99.90
20442;DHT22;10380;52.102;20.614;2022-12-13T16:05:09;-2.70;99.90
20442;DHT22;10380;52.102;20.614;2022-12-13T16:07:48;-2.70;99.90
20442;DHT22;10380;52.102;20.614;2022-12-13T16:10:22;-2.80;99.90
20442;DHT22;10380;52.102;20.614;2022-12-13T16:12:55;-2.80;99.90
20442;DHT22;10380;52.102;20.614;2022-12-13T16:15:30;-2.80;99.90
20442;DHT22;10380;52.102;20.614;2022-12-13T16:18:06;-2.80;99.90
20442;DHT22;10380;52.102;20.614;2022-12-13T16:20:37;-2.80;99.90
20442;DHT22;10380;52.102;20.614;2022-12-13T16:23:04;-2.90;99.90
20442;DHT22;10380;52.102;20.614;2022-12-13T16:25:34;-2.90;99.90
20442;DHT22;10380;52.102;20.614;2022-12-13T16:28:01;-2.90;99.90
20442;DHT22;10380;52.102;20.614;2022-12-13T16:33:24;-3.00;99.90
20442;DHT22;10380;52.102;20.614;2022-12-13T16:35:54;-3.00;99.90
20442;DHT22;10380;52.102;20.614;2022-12-13T16:38:21;-3.00;99.90
20442;DHT22;10380;52.102;20.614;2022-12-13T16:40:54;-3.10;99.90
20442;DHT22;10380;52.102;20.614;2022-12-13T16:43:24;-3.10;99.90
20442;DHT22;10380;52.102;20.614;2022-12-13T16:46:00;-3.10;99.90
20442;DHT22;10380;52.102;20.614;2022-12-13T16:48:50;-3.10;99.90
20442;DHT22;10380;52.102;20.614;2022-12-13T16:51:17;-3.20;99.90
20442;DHT22;10380;52.102;20.614;2022-12-13T16:53:44;-3.20;99.90
20442;DHT22;10380;52.102;20.614;2022-12-13T16:56:12;-3.30;99.90
20442;DHT22;10380;52.102;20.614;2022-12-13T16:58:42;-3.30;99.90
20442;DHT22;10380;52.102;20.614;2022-12-13T17:01:18;-3.30;99.90
20442;DHT22;10380;52.102;20.614;2022-12-13T17:03:46;-3.40;99.90
20442;DHT22;10380;52.102;20.614;2022-12-13T17:06:14;-3.40;99.90
20442;DHT22;10380;52.102;20.614;2022-12-13T17:08:43;-3.50;99.90
20442;DHT22;10380;52.102;20.614;2022-12-13T17:11:10;-3.50;99.90
20442;DHT22;10380;52.102;20.614;2022-12-13T17:13:43;-3.60;99.90
20442;DHT22;10380;52.102;20.614;2022-12-13T17:16:12;-3.60;99.90
20442;DHT22;10380;52.102;20.614;2022-12-13T17:18:39;-3.60;99.90
20442;DHT22;10380;52.102;20.614;2022-12-13T17:21:08;-3.70;99.90
20442;DHT22;10380;52.102;20.614;2022-12-13T17:23:35;-3.70;99.90
20442;DHT22;10380;52.102;20.614;2022-12-13T17:26:07;-3.70;99.90
20442;DHT22;10380;52.102;20.614;2022-12-13T17:28:35;-3.80;99.90
20442;DHT22;10380;52.102;20.614;2022-12-13T17:31:06;-3.80;99.90
20442;DHT22;10380;52.102;20.614;2022-12-13T17:33:34;-3.80;99.90
20442;DHT22;10380;52.102;20.614;2022-12-13T17:36:06;-3.80;99.90
20442;DHT22;10380;52.102;20.614;2022-12-13T17:38:33;-3.80;99.90
20442;DHT22;10380;52.102;20.614;2022-12-13T17:41:00;-3.80;99.90
20442;DHT22;10380;52.102;20.614;2022-12-13T17:43:27;-3.80;99.90
20442;DHT22;10380;52.102;20.614;2022-12-13T17:46:04;-3.80;99.90
20442;DHT22;10380;52.102;20.614;2022-12-13T17:48:31;-3.90;99.90
20442;DHT22;10380;52.102;20.614;2022-12-13T17:51:07;-3.90;99.90
20442;DHT22;10380;52.102;20.614;2022-12-13T17:53:35;-3.90;99.90
20442;DHT22;10380;52.102;20.614;2022-12-13T17:56:04;-3.90;99.90
20442;DHT22;10380;52.102;20.614;2022-12-13T17:58:32;-4.00;99.90
20442;DHT22;10380;52.102;20.614;2022-12-13T18:01:12;-4.00;99.90
20442;DHT22;10380;52.102;20.614;2022-12-13T18:03:39;-4.10;99.90
20442;DHT22;10380;52.102;20.614;2022-12-13T18:06:06;-4.10;99.90
20442;DHT22;10380;52.102;20.614;2022-12-13T18:08:34;-4.10;99.90
20442;DHT22;10380;52.102;20.614;2022-12-13T18:11:03;-4.30;99.90
20442;DHT22;10380;52.102;20.614;2022-12-13T18:13:51;-4.30;99.90